Time;durP1;ratioP1;P1;durP2;ratioP2;P2;SDS_P1;SDS_P2;PMS_P1;PMS_P2;Temp;Humidity;BMP_temperature;BMP_pressure;BME280_temperature;BME280_humidity;BME280_pressure;Samples;Min_cycle;Max_cycle;Signal;HPM_P1;HPM_P2
2022/10/11 00:00:24;;;;;;;52.08;19.95;;;;;;;14.59;100.00;100330.94;12246228;19;20003;-80
2022/10/11 00:04:25;;;;;;;50.42;18.20;;;;;;;14.48;100.00;100338.28;12235376;19;20107;-80
2022/10/11 00:08:27;;;;;;;44.88;19.23;;;;;;;14.43;100.00;100342.97;12222646;19;20022;-82
2022/10/11 00:12:28;;;;;;;47.13;18.60;;;;;;;14.38;100.00;100343.75;12193947;19;20092;-82
2022/10/11 00:16:30;;;;;;;41.83;17.50;;;;;;;14.30;100.00;100355.31;12217225;19;20462;-81
2022/10/11 00:20:32;;;;;;;52.25;18.75;;;;;;;14.20;100.00;100353.28;12219243;19;20626;-82
2022/10/11 00:24:34;;;;;;;47.72;17.77;;;;;;;14.14;100.00;100354.31;12193688;19;20011;-81
2022/10/11 00:28:36;;;;;;;54.22;18.13;;;;;;;14.08;100.00;100356.19;12217209;19;20010;-81
2022/10/11 00:32:38;;;;;;;58.10;19.45;;;;;;;14.06;100.00;100360.31;12214689;19;20018;-82
2022/10/11 00:36:40;;;;;;;55.65;19.98;;;;;;;14.05;100.00;100373.34;12194007;19;20594;-81
2022/10/11 00:40:42;;;;;;;55.08;20.75;;;;;;;14.00;100.00;100378.81;12218092;19;20014;-81
2022/10/11 00:44:48;;;;;;;58.67;21.27;;;;;;;13.97;100.00;100373.78;12212529;19;20006;-82
2022/10/11 00:48:56;;;;;;;54.53;19.55;;;;;;;13.96;100.00;100390.69;12190662;19;20543;-81
2022/10/11 00:53:04;;;;;;;58.55;20.83;;;;;;;13.88;100.00;100384.47;12210568;19;20013;-81
2022/10/11 00:57:09;;;;;;;60.90;20.85;;;;;;;13.83;100.00;100384.44;12195013;19;20583;-82
2022/10/11 01:01:10;;;;;;;59.00;20.88;;;;;;;13.78;100.00;100387.13;12211594;19;20006;-82
2022/10/11 01:05:15;;;;;;;69.25;23.10;;;;;;;13.78;100.00;100386.28;12215456;19;20003;-81
2022/10/11 01:09:32;;;;;;;67.25;24.35;;;;;;;13.80;100.00;100390.50;12195837;19;20007;-81
2022/10/11 01:13:39;;;;;;;65.85;23.75;;;;;;;13.84;100.00;100388.03;12214164;19;20038;-81
2022/10/11 01:18:05;;;;;;;63.92;23.73;;;;;;;13.86;100.00;100388.59;12216375;19;20011;-81
2022/10/11 01:22:34;;;;;;;64.43;22.83;;;;;;;13.86;100.00;100402.44;12189386;19;20041;-81
2022/10/11 01:27:03;;;;;;;59.95;20.90;;;;;;;13.86;100.00;100395.00;12216231;19;20018;-82
2022/10/11 01:31:18;;;;;;;66.15;24.50;;;;;;;13.81;100.00;100391.31;12194789;19;20034;-82
2022/10/11 01:35:27;;;;;;;53.20;21.70;;;;;;;13.77;100.00;100404.00;12217810;19;20010;-82
2022/10/11 01:39:37;;;;;;;62.10;22.80;;;;;;;13.71;100.00;100407.78;12190229;19;20062;-83
2022/10/11 01:43:40;;;;;;;63.75;23.48;;;;;;;13.65;100.00;100406.88;12210444;19;20007;-80
2022/10/11 01:47:44;;;;;;;;;;;;;;;13.59;100.00;100408.75;12212762;19;20007;-81
2022/10/11 01:51:51;;;;;;;56.30;22.20;;;;;;;13.54;100.00;100407.84;12186990;19;19911;-82
2022/10/11 01:56:23;;;;;;;57.60;20.63;;;;;;;13.42;100.00;100422.63;12210118;19;20002;-81
2022/10/11 02:00:38;;;;;;;45.93;17.17;;;;;;;13.35;100.00;100432.19;12188206;19;20003;-81
2022/10/11 02:04:51;;;;;;;51.72;18.90;;;;;;;13.26;100.00;100437.31;12211538;19;20400;-81
2022/10/11 02:09:15;;;;;;;37.08;16.80;;;;;;;13.16;100.00;100440.72;12190703;19;20003;-82
2022/10/11 02:13:32;;;;;;;38.80;15.98;;;;;;;13.06;100.00;100446.09;12204810;19;20199;-82
2022/10/11 02:17:41;;;;;;;24.95;12.88;;;;;;;12.96;100.00;100441.22;12212726;19;20010;-83
2022/10/11 02:21:47;;;;;;;20.48;10.50;;;;;;;12.78;100.00;100453.34;12185204;19;20543;-82
2022/10/11 02:25:51;;;;;;;24.33;10.18;;;;;;;12.68;100.00;100449.56;12214149;19;20014;-79
2022/10/11 02:29:54;;;;;;;24.33;9.80;;;;;;;12.49;100.00;100441.50;12244862;19;20020;-79
2022/10/11 02:34:04;;;;;;;23.83;9.48;;;;;;;12.38;100.00;100455.34;12261793;19;20011;-80
2022/10/11 02:38:20;;;;;;;26.73;10.07;;;;;;;12.24;100.00;100441.81;12241039;19;20760;-82
2022/10/11 02:42:45;;;;;;;18.25;7.97;;;;;;;12.09;100.00;100447.03;12202012;19;20463;-81
2022/10/11 02:46:48;;;;;;;20.98;9.13;;;;;;;11.95;100.00;100451.13;12230920;19;20014;-82
2022/10/11 02:50:52;;;;;;;20.77;9.20;;;;;;;11.90;100.00;100460.16;12226330;19;20616;-83
2022/10/11 02:54:54;;;;;;;22.77;8.00;;;;;;;11.83;100.00;100463.00;12192480;19;20027;-83
2022/10/11 02:58:55;;;;;;;19.27;8.23;;;;;;;11.79;100.00;100458.22;12216120;19;20014;-82
2022/10/11 03:02:57;;;;;;;18.95;7.55;;;;;;;11.71;100.00;100453.91;12197905;19;20034;-83
2022/10/11 03:06:59;;;;;;;16.35;6.60;;;;;;;11.58;100.00;100462.44;12221585;19;20357;-83
2022/10/11 03:11:00;;;;;;;13.70;6.03;;;;;;;11.47;100.00;100471.56;12221677;19;20010;-83
2022/10/11 03:15:02;;;;;;;21.20;7.45;;;;;;;11.35;100.00;100471.56;12200928;19;20003;-82
2022/10/11 03:19:04;;;;;;;15.68;5.20;;;;;;;11.21;100.00;100472.84;12219292;19;20010;-82
2022/10/11 03:23:06;;;;;;;13.05;4.55;;;;;;;11.09;100.00;100476.41;12214815;19;20007;-82
2022/10/11 03:27:07;;;;;;;17.45;4.45;;;;;;;10.94;100.00;100478.78;12195786;19;20463;-83
2022/10/11 03:31:09;;;;;;;14.55;5.05;;;;;;;10.84;100.00;100486.81;12216952;19;20007;-83
2022/10/11 03:35:11;;;;;;;11.57;3.92;;;;;;;10.74;100.00;100490.16;12218866;19;20011;-82
2022/10/11 03:39:13;;;;;;;13.70;3.95;;;;;;;10.60;100.00;100491.41;12197927;19;20031;-82
2022/10/11 03:43:15;;;;;;;15.38;3.22;;;;;;;10.47;100.00;100504.28;12216655;19;20018;-81
2022/10/11 03:47:26;;;;;;;22.33;4.00;;;;;;;10.39;100.00;100501.84;12216977;19;20736;-82
2022/10/11 03:51:51;;;;;;;12.23;3.55;;;;;;;10.34;100.00;100504.44;12191897;19;20118;-81
2022/10/11 03:55:54;;;;;;;14.15;3.83;;;;;;;10.25;100.00;100514.91;12217321;19;20078;-80
2022/10/11 04:00:09;;;;;;;15.95;3.72;;;;;;;10.13;100.00;100515.91;12194895;19;20371;-81
2022/10/11 04:04:10;;;;;;;11.32;3.33;;;;;;;10.04;100.00;100513.47;12215278;19;20007;-80
2022/10/11 04:08:12;;;;;;;18.40;4.50;;;;;;;9.96;100.00;100513.75;12215751;19;20363;-82
2022/10/11 04:12:14;;;;;;;17.67;3.65;;;;;;;9.85;100.00;100527.47;12191873;19;20105;-82
2022/10/11 04:16:18;;;;;;;18.08;3.22;;;;;;;9.80;100.00;100520.72;12216894;19;20042;-82
2022/10/11 04:20:21;;;;;;;16.55;3.38;;;;;;;9.75;100.00;100530.72;12214026;19;20476;-82
2022/10/11 04:24:23;;;;;;;12.27;3.25;;;;;;;9.64;100.00;100523.19;12192520;19;20021;-81
2022/10/11 04:28:24;;;;;;;15.82;3.33;;;;;;;9.62;100.00;100525.34;12215024;19;20003;-80
2022/10/11 04:32:26;;;;;;;14.07;3.40;;;;;;;9.54;100.00;100530.06;12211981;19;20007;-81
2022/10/11 04:36:29;;;;;;;14.35;3.40;;;;;;;9.49;100.00;100534.56;12195067;19;20023;-80
2022/10/11 04:40:31;;;;;;;13.27;2.78;;;;;;;9.40;100.00;100531.25;12211740;19;20011;-81
2022/10/11 04:44:33;;;;;;;16.73;3.38;;;;;;;9.38;100.00;100529.81;12212377;19;20018;-80
2022/10/11 04:48:34;;;;;;;17.48;4.45;;;;;;;9.33;100.00;100535.97;12191885;19;20075;-81
2022/10/11 04:52:49;;;;;;;13.15;3.70;;;;;;;9.27;100.00;100545.09;12230670;19;20046;-81
2022/10/11 04:56:50;;;;;;;13.25;3.17;;;;;;;9.22;100.00;100554.03;12214695;19;20002;-80
2022/10/11 05:00:52;;;;;;;13.23;3.50;;;;;;;9.21;100.00;100557.00;12188394;19;20456;-81
2022/10/11 05:04:56;;;;;;;17.35;4.47;;;;;;;9.20;100.00;100561.66;12213379;19;20007;-80
2022/10/11 05:08:59;;;;;;;18.42;3.17;;;;;;;9.13;100.00;100564.47;12238887;19;20878;-80
2022/10/11 05:13:00;;;;;;;7.97;2.78;;;;;;;9.06;100.00;100569.16;12241351;19;20025;-80
2022/10/11 05:17:02;;;;;;;15.90;3.00;;;;;;;8.99;100.00;100573.03;12215620;19;20014;-81
2022/10/11 05:21:06;;;;;;;11.50;2.80;;;;;;;8.92;100.00;100584.03;12193334;19;20452;-81
2022/10/11 05:25:08;;;;;;;13.35;3.35;;;;;;;8.84;100.00;100578.81;12213800;19;20068;-82
2022/10/11 05:29:10;;;;;;;17.15;3.33;;;;;;;8.81;100.00;100593.00;12207934;19;20034;-80
2022/10/11 05:33:11;;;;;;;13.80;3.38;;;;;;;8.76;100.00;100603.78;12156831;19;20037;-81
2022/10/11 05:37:13;;;;;;;13.75;3.20;;;;;;;8.71;100.00;100606.34;12219918;19;20007;-80
2022/10/11 05:41:15;;;;;;;14.80;3.40;;;;;;;8.64;100.00;100609.13;12215554;19;20003;-80
2022/10/11 05:45:17;;;;;;;12.80;3.63;;;;;;;8.58;100.00;100604.50;12192276;19;20039;-80
2022/10/11 05:49:19;;;;;;;16.40;5.43;;;;;;;8.59;100.00;100623.50;12217319;19;20010;-79
2022/10/11 05:53:20;;;;;;;20.33;5.55;;;;;;;8.58;100.00;100621.81;12213661;19;20129;-80
2022/10/11 05:57:22;;;;;;;12.90;4.55;;;;;;;8.56;100.00;100614.84;12193351;19;20023;-79
2022/10/11 06:01:25;;;;;;;21.67;5.47;;;;;;;8.58;100.00;100623.72;12211516;19;20002;-80
2022/10/11 06:05:27;;;;;;;12.70;3.03;;;;;;;8.57;100.00;100625.63;12216560;19;20007;-80
2022/10/11 06:09:29;;;;;;;13.70;3.75;;;;;;;8.55;100.00;100637.91;12193411;19;20034;-80
2022/10/11 06:13:34;;;;;;;15.02;3.72;;;;;;;8.58;100.00;100635.56;12214774;19;20086;-79
2022/10/11 06:17:36;;;;;;;;;;;;;;;8.56;100.00;100643.16;12211993;19;20038;-79
2022/10/11 06:21:38;;;;;;;15.20;4.65;;;;;;;8.60;100.00;100649.94;12188938;19;19935;-79
2022/10/11 06:25:39;;;;;;;12.40;4.05;;;;;;;8.59;100.00;100652.88;12213297;19;20070;-80
2022/10/11 06:29:41;;;;;;;14.73;4.72;;;;;;;8.58;100.00;100654.78;12210159;19;20021;-79
2022/10/11 06:33:43;;;;;;;12.63;3.00;;;;;;;8.59;100.00;100664.72;12204474;19;20006;-80
2022/10/11 06:37:44;;;;;;;15.05;3.45;;;;;;;8.62;100.00;100674.44;12235102;19;20728;-80
2022/10/11 06:41:46;;;;;;;16.77;3.70;;;;;;;8.64;100.00;100680.56;12226471;19;20014;-80
2022/10/11 06:45:48;;;;;;;12.85;2.80;;;;;;;8.66;100.00;100682.03;12194276;19;20481;-81
2022/10/11 06:49:49;;;;;;;12.02;3.60;;;;;;;8.71;100.00;100694.28;12214031;19;20031;-80
2022/10/11 06:53:54;;;;;;;12.23;3.13;;;;;;;8.74;100.00;100700.16;12207484;19;20046;-80
2022/10/11 06:57:56;;;;;;;11.88;2.90;;;;;;;8.77;100.00;100694.25;12189975;19;20476;-81
2022/10/11 07:01:57;;;;;;;17.42;3.10;;;;;;;8.80;100.00;100704.81;12210855;19;20073;-80
2022/10/11 07:06:04;;;;;;;15.73;3.28;;;;;;;8.83;100.00;100709.91;12191965;19;20006;-80
2022/10/11 07:10:06;;;;;;;14.68;3.42;;;;;;;8.82;100.00;100712.84;12210679;19;20761;-80
2022/10/11 07:14:08;;;;;;;10.13;2.80;;;;;;;8.84;100.00;100722.56;12210772;19;20006;-81
2022/10/11 07:18:12;;;;;;;12.90;3.47;;;;;;;8.93;100.00;100717.69;12192620;19;20006;-80
2022/10/11 07:22:14;;;;;;;;;;;;;;;8.97;100.00;100727.16;12211356;19;20017;-80
2022/10/11 07:26:17;;;;;;;16.33;3.10;;;;;;;9.06;100.00;100728.59;12225957;19;19911;-80
2022/10/11 07:30:19;;;;;;;22.73;3.65;;;;;;;9.15;100.00;100731.97;12204352;19;20085;-81
2022/10/11 07:34:22;;;;;;;;;;;;;;;9.27;100.00;100729.38;12225230;19;20078;-80
2022/10/11 07:38:23;;;;;;;10.02;2.80;;;;;;;9.43;100.00;100731.63;12222637;19;20265;-80
2022/10/11 07:42:25;;;;;;;16.08;3.45;;;;;;;9.59;100.00;100735.75;12197420;19;20605;-79
2022/10/11 07:46:27;;;;;;;10.25;3.13;;;;;;;9.79;100.00;100730.13;12218171;19;20491;-81
2022/10/11 07:50:29;;;;;;;20.40;3.15;;;;;;;9.92;100.00;100731.94;12222061;19;20018;-80
2022/10/11 07:54:31;;;;;;;20.55;3.13;;;;;;;10.08;100.00;100725.03;12198279;19;20467;-81
2022/10/11 07:58:33;;;;;;;9.70;2.83;;;;;;;10.34;100.00;100727.59;12218962;19;20086;-79
2022/10/11 08:02:34;;;;;;;17.73;3.08;;;;;;;10.54;100.00;100732.94;12215896;19;20433;-80
2022/10/11 08:06:36;;;;;;;16.77;2.97;;;;;;;10.81;100.00;100733.47;12198492;19;20696;-80
2022/10/11 08:10:39;;;;;;;13.15;2.67;;;;;;;11.07;100.00;100726.00;12219733;19;20027;-79
2022/10/11 08:14:40;;;;;;;17.65;3.22;;;;;;;11.10;100.00;100736.56;12218160;19;20392;-81
2022/10/11 08:18:42;;;;;;;15.40;2.80;;;;;;;11.32;100.00;100735.00;12196990;19;20579;-80
2022/10/11 08:22:44;;;;;;;17.25;2.85;;;;;;;11.48;100.00;100740.94;12218706;19;20030;-80
2022/10/11 08:26:46;;;;;;;14.52;2.25;;;;;;;11.58;100.00;100739.31;12223387;19;20443;-81
2022/10/11 08:30:55;;;;;;;13.75;2.33;;;;;;;11.67;100.00;100748.13;12201650;19;20512;-81
2022/10/11 08:35:18;;;;;;;13.07;2.25;;;;;;;11.94;100.00;100742.22;12218326;19;20002;-82
2022/10/11 08:39:19;;;;;;;14.90;2.28;;;;;;;12.18;100.00;100746.72;12200531;19;20019;-81
2022/10/11 08:43:45;;;;;;;22.00;3.00;;;;;;;12.41;100.00;100745.91;12217362;19;20486;-82
2022/10/11 08:47:47;;;;;;;12.88;2.30;;;;;;;12.66;100.00;100742.91;12215080;19;20046;-80
2022/10/11 08:52:01;;;;;;;13.80;3.00;;;;;;;12.91;100.00;100750.09;12195489;19;20010;-82
2022/10/11 08:56:05;;;;;;;12.93;2.47;;;;;;;13.05;100.00;100748.75;12222914;19;20120;-81
2022/10/11 09:00:16;;;;;;;14.45;2.00;;;;;;;13.27;100.00;100754.53;12197680;19;20029;-82
2022/10/11 09:04:26;;;;;;;10.68;2.00;;;;;;;13.36;100.00;100746.69;12219352;19;20007;-83
2022/10/11 09:09:11;;;;;;;13.15;2.65;;;;;;;13.22;100.00;100748.84;12218888;19;20030;-82
2022/10/11 09:13:19;;;;;;;13.13;1.88;;;;;;;12.99;100.00;100755.25;12194457;19;20035;-82
2022/10/11 09:17:29;;;;;;;13.60;2.63;;;;;;;12.78;100.00;100759.50;12219444;19;20011;-82
2022/10/11 09:21:37;;;;;;;7.72;1.88;;;;;;;12.76;100.00;100751.44;12192205;19;20015;-82
2022/10/11 09:26:20;;;;;;;8.13;2.15;;;;;;;12.60;100.00;100746.63;12219782;19;20022;-82
2022/10/11 09:30:27;;;;;;;11.18;1.88;;;;;;;12.59;100.00;100750.50;12191119;19;20082;-82
2022/10/11 09:34:31;;;;;;;9.80;1.90;;;;;;;12.61;100.00;100750.22;12214818;19;20021;-82
2022/10/11 09:39:16;;;;;;;9.68;2.22;;;;;;;12.80;100.00;100745.44;12220660;19;20032;-81
2022/10/11 09:43:19;;;;;;;9.43;2.00;;;;;;;13.13;100.00;100747.53;12191087;19;20095;-82
2022/10/11 09:47:26;;;;;;;8.70;2.63;;;;;;;13.39;100.00;100754.50;12210132;19;20504;-83
2022/10/11 09:51:29;;;;;;;11.95;2.28;;;;;;;13.64;100.00;100743.06;12194222;19;20576;-81
2022/10/11 09:55:49;;;;;;;11.27;2.60;;;;;;;13.91;100.00;100746.91;12217755;19;20024;-82
2022/10/11 10:00:22;;;;;;;9.40;2.53;;;;;;;14.12;95.92;100753.66;12248672;19;20002;-83
2022/10/11 10:05:07;;;;;;;13.73;2.65;;;;;;;14.37;93.29;100755.19;12244156;19;20021;-82
2022/10/11 10:09:26;;;;;;;15.43;2.45;;;;;;;14.52;93.46;100747.16;12222965;19;20015;-82
2022/10/11 10:13:54;;;;;;;8.30;1.77;;;;;;;14.56;89.12;100745.53;12219180;19;20057;-82
2022/10/11 10:17:57;;;;;;;14.48;2.47;;;;;;;14.66;89.57;100741.25;12251699;19;20017;-83
2022/10/11 10:22:01;;;;;;;;;;;;;;;14.66;87.04;100744.00;12244018;19;20010;-81
2022/10/11 10:26:25;;;;;;;10.98;2.53;;;;;;;14.84;84.45;100740.94;12223684;19;19937;-81
2022/10/11 10:30:41;;;;;;;12.10;1.80;;;;;;;15.06;84.08;100737.38;12188757;19;20022;-81
2022/10/11 10:35:08;;;;;;;8.40;1.67;;;;;;;15.21;81.90;100727.31;12212280;19;20087;-83
2022/10/11 10:39:46;;;;;;;12.07;2.15;;;;;;;15.29;80.46;100728.81;12193231;19;20021;-82
2022/10/11 10:43:57;;;;;;;11.98;1.77;;;;;;;15.67;81.78;100729.78;12210940;19;20031;-81
2022/10/11 10:48:33;;;;;;;7.70;1.83;;;;;;;15.93;77.36;100728.16;12188025;19;20412;-83
2022/10/11 10:53:22;;;;;;;10.25;2.05;;;;;;;15.94;75.69;100729.81;12206637;19;20006;-82
2022/10/11 10:58:09;;;;;;;12.45;1.85;;;;;;;16.18;76.61;100720.06;12185863;19;20014;-83
2022/10/11 11:02:21;;;;;;;8.05;1.77;;;;;;;16.28;74.51;100730.41;12212989;19;20013;-82
2022/10/11 11:06:49;;;;;;;10.50;2.08;;;;;;;16.34;74.80;100721.00;12198859;19;20486;-82
2022/10/11 11:11:03;;;;;;;10.68;1.73;;;;;;;16.45;74.73;100724.72;12224569;19;20006;-82
2022/10/11 11:15:27;;;;;;;11.10;1.58;;;;;;;16.56;73.44;100723.66;12199675;19;20006;-84
2022/10/11 11:20:12;;;;;;;7.50;1.70;;;;;;;16.63;70.95;100723.44;12225747;19;20010;-82
2022/10/11 11:24:23;;;;;;;9.18;1.70;;;;;;;16.71;68.39;100725.72;12199591;19;20357;-83
2022/10/11 11:28:48;;;;;;;11.30;2.05;;;;;;;16.72;69.57;100704.31;12222352;19;20010;-82
2022/10/11 11:33:09;;;;;;;7.90;2.22;;;;;;;17.15;70.27;100711.50;12216863;19;20018;-82
2022/10/11 11:37:39;;;;;;;10.50;1.88;;;;;;;17.74;65.03;100701.94;12200117;19;20014;-83
2022/10/11 11:41:51;;;;;;;13.32;2.55;;;;;;;18.08;65.82;100707.88;12215640;19;20011;-84
2022/10/11 11:45:58;;;;;;;12.77;2.95;;;;;;;18.71;66.88;100704.78;12198021;19;20031;-82
2022/10/11 11:50:13;;;;;;;9.65;2.15;;;;;;;19.61;64.55;100691.88;12214323;19;20568;-83
2022/10/11 11:54:33;;;;;;;14.18;1.95;;;;;;;20.29;62.40;100691.94;12199234;19;20003;-80
2022/10/11 11:58:47;;;;;;;8.00;1.67;;;;;;;20.16;58.04;100695.41;12217956;19;20003;-82
2022/10/11 12:03:12;;;;;;;6.63;1.80;;;;;;;20.09;58.12;100694.91;12216367;19;20063;-81
2022/10/11 12:07:17;;;;;;;7.55;1.70;;;;;;;20.61;57.85;100684.94;12195215;19;20011;-81
2022/10/11 12:11:24;;;;;;;8.48;1.65;;;;;;;20.63;54.98;100683.53;12217272;19;20007;-82
2022/10/11 12:15:26;;;;;;;6.38;1.48;;;;;;;20.82;51.76;100678.00;12205766;19;20037;-83
2022/10/11 12:19:27;;;;;;;6.25;1.98;;;;;;;20.63;54.91;100672.31;12221683;19;20102;-82
2022/10/11 12:23:29;;;;;;;7.17;2.10;;;;;;;20.82;54.04;100661.19;12222618;19;20023;-82
2022/10/11 12:27:36;;;;;;;7.93;1.95;;;;;;;21.07;52.25;100662.84;12202278;19;20010;-82
2022/10/11 12:31:37;;;;;;;9.50;1.77;;;;;;;21.29;52.52;100655.84;12218356;19;20743;-81
2022/10/11 12:35:52;;;;;;;8.05;1.73;;;;;;;21.43;48.72;100644.75;12221424;19;20014;-82
2022/10/11 12:39:57;;;;;;;6.25;1.48;;;;;;;21.54;51.64;100641.50;12197068;19;20034;-83
2022/10/11 12:44:21;;;;;;;6.80;1.70;;;;;;;21.69;48.02;100640.44;12219701;19;20055;-80
2022/10/11 12:48:44;;;;;;;6.47;1.88;;;;;;;22.10;47.59;100650.16;12195802;19;20596;-82
2022/10/11 12:53:02;;;;;;;8.25;1.85;;;;;;;22.01;47.97;100641.59;12220567;19;20021;-82
2022/10/11 12:57:40;;;;;;;7.15;1.55;;;;;;;21.75;48.61;100630.81;12195433;19;20030;-82
2022/10/11 13:01:51;;;;;;;4.93;1.40;;;;;;;21.55;48.98;100631.94;12214213;19;20143;-82
2022/10/11 13:05:55;;;;;;;7.68;1.52;;;;;;;20.76;49.75;100630.72;12217563;19;20007;-82
2022/10/11 13:10:04;;;;;;;8.40;1.88;;;;;;;20.33;51.29;100623.03;12196090;19;20011;-82
2022/10/11 13:14:16;;;;;;;7.25;1.80;;;;;;;19.77;50.71;100632.75;12213669;19;20011;-83
2022/10/11 13:18:23;;;;;;;8.90;1.98;;;;;;;19.32;52.81;100622.72;12195259;19;20023;-82
2022/10/11 13:22:25;;;;;;;8.43;1.50;;;;;;;19.09;53.54;100627.00;12208785;19;20077;-83
2022/10/11 13:26:29;;;;;;;8.07;1.90;;;;;;;18.96;53.81;100617.31;12224084;19;20019;-84
2022/10/11 13:30:33;;;;;;;6.80;1.98;;;;;;;18.63;53.70;100627.19;12195274;19;20467;-83
2022/10/11 13:34:38;;;;;;;6.50;2.17;;;;;;;18.28;55.11;100630.88;12218177;19;20470;-84
2022/10/11 13:38:39;;;;;;;10.40;1.52;;;;;;;17.97;54.87;100620.59;12218643;19;20038;-82
2022/10/11 13:42:42;;;;;;;6.97;1.77;;;;;;;17.60;57.06;100623.59;12193359;19;20471;-83
2022/10/11 13:46:44;;;;;;;8.40;1.73;;;;;;;17.36;57.77;100625.22;12221890;19;20014;-83
2022/10/11 13:51:09;;;;;;;7.73;1.57;;;;;;;17.14;57.92;100620.72;12212527;19;20078;-83
2022/10/11 13:55:34;;;;;;;7.72;1.75;;;;;;;17.03;57.15;100613.44;12192300;19;20011;-83
2022/10/11 13:59:41;;;;;;;;;;;;;;;16.75;58.31;100612.75;12231989;19;20070;-83
2022/10/11 14:03:46;;;;;;;7.20;2.55;;;;;;;16.68;59.51;100614.09;12193755;19;19906;-83
2022/10/11 14:07:48;;;;;;;6.90;1.67;;;;;;;16.65;60.20;100612.69;12220994;19;20018;-83
2022/10/11 14:11:50;;;;;;;5.47;1.20;;;;;;;16.53;59.26;100612.06;12220415;19;20019;-83
2022/10/11 14:16:04;;;;;;;7.15;1.60;;;;;;;16.44;60.06;100616.47;12202194;19;20060;-82
2022/10/11 14:20:18;;;;;;;4.07;1.27;;;;;;;16.35;59.45;100613.38;12222743;19;20070;-83
2022/10/11 14:24:20;;;;;;;7.68;1.67;;;;;;;16.38;60.03;100607.25;12195724;19;20083;-82
2022/10/11 14:28:22;;;;;;;13.23;2.20;;;;;;;16.51;59.88;100603.16;12208969;19;20348;-84
2022/10/11 14:32:34;;;;;;;5.85;1.88;;;;;;;16.59;60.63;100602.66;12213858;19;20015;-83
2022/10/11 14:36:35;;;;;;;10.07;1.83;;;;;;;16.45;61.42;100607.88;12210909;19;20350;-82
2022/10/11 14:40:37;;;;;;;10.90;2.33;;;;;;;16.37;61.20;100609.22;12231862;19;20011;-83
2022/10/11 14:44:39;;;;;;;9.80;3.08;;;;;;;16.37;60.86;100600.03;12226369;19;20019;-82
2022/10/11 14:48:41;;;;;;;7.43;1.50;;;;;;;16.34;61.48;100598.63;12202605;19;20010;-82
2022/10/11 14:52:56;;;;;;;8.70;1.92;;;;;;;16.40;61.97;100596.72;12220820;19;20085;-82
2022/10/11 14:57:01;;;;;;;12.00;1.50;;;;;;;16.48;62.22;100603.69;12229251;19;20003;-82
2022/10/11 15:01:03;;;;;;;8.18;1.80;;;;;;;16.47;62.70;100594.50;12202914;19;20019;-82
2022/10/11 15:05:05;;;;;;;13.57;1.90;;;;;;;16.43;63.39;100598.13;12234524;19;20014;-83
2022/10/11 15:09:07;;;;;;;7.87;1.57;;;;;;;16.32;62.47;100598.03;12205064;19;20030;-82
2022/10/11 15:13:09;;;;;;;12.38;2.25;;;;;;;16.27;62.82;100597.16;12222675;19;20038;-82
2022/10/11 15:17:11;;;;;;;9.40;2.10;;;;;;;16.14;62.55;100590.16;12225418;19;20006;-83
2022/10/11 15:21:13;;;;;;;7.32;1.65;;;;;;;16.02;62.40;100589.50;12216445;19;20024;-83
2022/10/11 15:25:15;;;;;;;7.32;1.60;;;;;;;15.87;62.46;100591.06;12226087;19;20006;-82
2022/10/11 15:29:31;;;;;;;9.13;1.77;;;;;;;15.78;63.96;100592.66;12231885;19;20011;-83
2022/10/11 15:33:33;;;;;;;8.57;2.05;;;;;;;15.63;64.60;100592.50;12255851;19;20263;-83
2022/10/11 15:37:35;;;;;;;9.90;2.35;;;;;;;15.45;66.23;100588.19;12252176;19;20042;-83
2022/10/11 15:41:38;;;;;;;7.63;1.80;;;;;;;15.24;68.50;100589.91;12248165;19;20006;-83
2022/10/11 15:45:40;;;;;;;7.35;1.83;;;;;;;15.01;70.21;100594.66;12185597;19;20014;-82
2022/10/11 15:49:41;;;;;;;10.38;1.98;;;;;;;14.81;72.30;100589.72;12225717;19;20013;-83
2022/10/11 15:53:43;;;;;;;10.45;1.58;;;;;;;14.66;74.09;100594.22;12215854;19;20028;-83
2022/10/11 15:57:45;;;;;;;7.15;1.73;;;;;;;14.47;75.10;100585.34;12200464;19;20030;-82
2022/10/11 16:01:46;;;;;;;13.80;2.08;;;;;;;14.33;75.81;100587.66;12227076;19;20011;-82
2022/10/11 16:05:51;;;;;;;7.03;1.85;;;;;;;14.24;76.50;100589.19;12224720;19;20045;-83
2022/10/11 16:09:52;;;;;;;10.20;1.73;;;;;;;14.13;77.66;100591.00;12197130;19;20014;-82
2022/10/11 16:13:54;;;;;;;7.13;1.67;;;;;;;14.03;78.49;100588.88;12218923;19;20007;-83
2022/10/11 16:17:56;;;;;;;3.45;1.50;;;;;;;13.95;78.80;100597.66;12222785;19;20020;-83
2022/10/11 16:21:57;;;;;;;5.88;1.95;;;;;;;13.86;79.24;100591.69;12197755;19;20011;-83
2022/10/11 16:26:05;;;;;;;6.57;1.90;;;;;;;13.78;80.06;100596.81;12222115;19;20034;-82
2022/10/11 16:30:10;;;;;;;11.52;2.08;;;;;;;13.62;81.12;100596.56;12230201;19;20010;-80
2022/10/11 16:34:12;;;;;;;8.27;1.58;;;;;;;13.44;82.13;100597.63;12204647;19;20082;-82
2022/10/11 16:38:15;;;;;;;12.85;2.88;;;;;;;13.25;82.70;100601.69;12221881;19;20017;-83
2022/10/11 16:42:17;;;;;;;10.80;2.10;;;;;;;13.06;83.56;100606.56;12225986;19;20022;-82
2022/10/11 16:46:20;;;;;;;10.68;2.85;;;;;;;12.88;84.79;100606.75;12199378;19;20014;-81
2022/10/11 16:50:21;;;;;;;8.77;2.00;;;;;;;12.71;85.92;100604.75;12220073;19;20348;-82
2022/10/11 16:54:29;;;;;;;16.52;2.38;;;;;;;12.56;86.77;100607.22;12236752;19;20029;-82
2022/10/11 16:58:31;;;;;;;4.15;1.77;;;;;;;12.40;87.34;100603.25;12237274;19;19998;-82
2022/10/11 17:02:35;;;;;;;7.38;2.30;;;;;;;12.25;88.19;100606.50;12256998;19;20018;-83
2022/10/11 17:06:38;;;;;;;7.57;1.58;;;;;;;12.13;88.51;100605.69;12251464;19;20070;-82
2022/10/11 17:10:43;;;;;;;9.65;2.17;;;;;;;11.98;88.57;100605.31;12232175;19;20307;-83
2022/10/11 17:14:45;;;;;;;11.50;1.88;;;;;;;11.83;89.00;100598.31;12257449;19;20006;-82
2022/10/11 17:18:47;;;;;;;6.87;1.67;;;;;;;11.75;89.95;100609.72;12240321;19;20009;-82
2022/10/11 17:22:50;;;;;;;10.30;1.85;;;;;;;11.67;90.29;100612.00;12274112;19;20018;-83
2022/10/11 17:26:53;;;;;;;10.20;1.85;;;;;;;11.58;90.70;100608.75;12274802;19;20015;-83
2022/10/11 17:30:56;;;;;;;8.88;1.70;;;;;;;11.47;91.28;100607.63;12225290;19;20014;-82
2022/10/11 17:35:00;;;;;;;7.90;1.63;;;;;;;11.38;91.54;100609.88;12224541;19;20011;-82
2022/10/11 17:39:06;;;;;;;16.23;2.17;;;;;;;11.32;90.30;100608.06;12220328;19;20030;-83
2022/10/11 17:43:10;;;;;;;6.32;2.15;;;;;;;11.28;89.63;100603.25;12193552;19;20015;-83
2022/10/11 17:47:13;;;;;;;11.02;2.00;;;;;;;11.24;89.57;100600.13;12213131;19;20246;-83
2022/10/11 17:51:17;;;;;;;12.70;3.27;;;;;;;11.20;89.56;100603.59;12216882;19;20022;-83
2022/10/11 17:55:19;;;;;;;5.68;2.50;;;;;;;11.15;89.46;100605.16;12189584;19;20006;-83
2022/10/11 17:59:21;;;;;;;5.00;1.98;;;;;;;11.14;89.52;100603.44;12217173;19;20080;-84
2022/10/11 18:03:22;;;;;;;8.23;2.22;;;;;;;11.15;88.72;100612.56;12209963;19;20137;-83
2022/10/11 18:07:26;;;;;;;5.72;1.85;;;;;;;11.15;88.58;100607.03;12191756;19;20015;-83
2022/10/11 18:11:31;;;;;;;10.18;2.20;;;;;;;11.13;88.33;100603.69;12212265;19;20022;-83
2022/10/11 18:15:34;;;;;;;7.43;2.17;;;;;;;11.06;88.64;100601.00;12218067;19;20015;-83
2022/10/11 18:19:36;;;;;;;9.95;1.67;;;;;;;11.01;89.58;100608.31;12192141;19;20010;-83
2022/10/11 18:23:37;;;;;;;8.82;1.75;;;;;;;10.94;89.66;100606.47;12213855;19;20099;-83
2022/10/11 18:27:41;;;;;;;9.05;1.95;;;;;;;10.91;89.73;100615.22;12195002;19;20034;-83
2022/10/11 18:31:43;;;;;;;6.63;2.10;;;;;;;10.87;89.93;100611.25;12214318;19;20010;-84
2022/10/11 18:35:44;;;;;;;10.40;2.75;;;;;;;10.82;90.40;100602.81;12215278;19;20011;-84
2022/10/11 18:39:46;;;;;;;10.57;2.42;;;;;;;10.77;91.52;100610.97;12190587;19;20010;-84
2022/10/11 18:43:55;;;;;;;5.85;2.08;;;;;;;10.74;91.70;100614.19;12209626;19;20023;-84